Terminal Aerodrome Forecast
Issued by NWS Spokane, WA

Home | Current Version | Previous Version | Text Only | Print | Product List | Glossary On
Versions: 1 2 3 4 5 6 7 8 9 10 11 12 13 14 15 16 17 18
000
FTUS46 KOTX 270533
TAFEAT
TAF
KEAT 270533Z 2706/2806 29004KT P6SM BKN035 OVC050
     FM271200 30002KT P6SM BCFG FEW002 BKN100
     FM272000 VRB03KT P6SM -SHSN SCT025 BKN060
     FM280400 30006KT P6SM SCT040 BKN090=

USA.gov is the U.S. government's official web portal to all federal, state and local government web resources and services.